Time;durP1;ratioP1;P1;durP2;ratioP2;P2;SDS_P1;SDS_P2;PMS_P1;PMS_P2;Temp;Humidity;BMP_temperature;BMP_pressure;BME280_temperature;BME280_humidity;BME280_pressure;Samples;Min_cycle;Max_cycle;Signal;HPM_P1;HPM_P2
2023/01/14 00:00:07;;;;;;;;;;;5.00;99.90;;;;;;5085742;28;19958;-69
2023/01/14 00:02:34;;;;;;;;;;;5.00;99.90;;;;;;5086116;28;19924;-69
2023/01/14 00:05:00;;;;;;;;;;;5.00;99.90;;;;;;5107712;28;19934;-69
2023/01/14 00:07:27;;;;;;;;;;;5.00;99.90;;;;;;5105632;28;19920;-68
2023/01/14 00:09:54;;;;;;;;;;;5.10;99.90;;;;;;5085478;28;19963;-68
2023/01/14 00:12:20;;;;;;;;;;;5.00;99.90;;;;;;5085180;28;20065;-69
2023/01/14 00:14:48;;;;;;;;;;;5.00;99.90;;;;;;5101518;28;20107;-68
2023/01/14 00:17:15;;;;;;;;;;;5.00;99.90;;;;;;5105018;28;20185;-69
2023/01/14 00:19:42;;;;;;;;;;;4.90;99.90;;;;;;5096073;28;19920;-68
2023/01/14 00:22:08;;;;;;;;;;;5.00;99.90;;;;;;5105402;28;20062;-68
2023/01/14 00:24:35;;;;;;;;;;;5.00;99.90;;;;;;5105160;28;20168;-68
2023/01/14 00:27:02;;;;;;;;;;;4.90;99.90;;;;;;5103569;28;20204;-68
2023/01/14 00:29:29;;;;;;;;;;;5.00;99.90;;;;;;5104546;28;19987;-68
2023/01/14 00:31:57;;;;;;;;;;;5.00;99.90;;;;;;5089187;28;19927;-69
2023/01/14 00:34:25;;;;;;;;;;;5.00;99.90;;;;;;5098694;28;19951;-69
2023/01/14 00:39:19;;;;;;;;;;;5.00;99.90;;;;;;5097940;22;19983;-71
2023/01/14 00:41:46;;;;;;;;;;;5.00;99.90;;;;;;5064660;28;19963;-70
2023/01/14 00:44:12;;;;;;;;;;;5.00;99.90;;;;;;5058393;28;20227;-70
2023/01/14 00:46:40;;;;;;;;;;;5.00;99.90;;;;;;5063003;28;19989;-70
2023/01/14 00:49:09;;;;;;;;;;;5.00;99.90;;;;;;5052829;28;19980;-69
2023/01/14 00:51:35;;;;;;;;;;;5.00;99.90;;;;;;5051781;28;20008;-71
2023/01/14 00:54:03;;;;;;;;;;;5.00;99.90;;;;;;5030675;28;20254;-70
2023/01/14 00:56:29;;;;;;;;;;;5.00;99.90;;;;;;5043393;28;19928;-70
2023/01/14 00:58:56;;;;;;;;;;;4.90;99.90;;;;;;5038559;28;19980;-71
2023/01/14 01:01:23;;;;;;;;;;;4.90;99.90;;;;;;5040800;28;20286;-69
2023/01/14 01:03:50;;;;;;;;;;;4.90;99.90;;;;;;5024391;28;19922;-71
2023/01/14 01:06:19;;;;;;;;;;;4.90;99.90;;;;;;5028959;28;19929;-71
2023/01/14 01:08:46;;;;;;;;;;;4.90;99.90;;;;;;5024007;28;19922;-71
2023/01/14 01:11:13;;;;;;;;;;;4.90;99.90;;;;;;5024318;28;19922;-71
2023/01/14 01:13:40;;;;;;;;;;;4.80;99.90;;;;;;5044299;28;19948;-71
2023/01/14 01:16:07;;;;;;;;;;;4.80;99.90;;;;;;5043259;28;19921;-71
2023/01/14 01:18:34;;;;;;;;;;;4.90;99.90;;;;;;5043514;28;19922;-70
2023/01/14 01:21:01;;;;;;;;;;;4.80;99.90;;;;;;5063885;28;19952;-71
2023/01/14 01:23:29;;;;;;;;;;;4.80;99.90;;;;;;5062652;28;19927;-70
2023/01/14 01:25:58;;;;;;;;;;;4.80;99.90;;;;;;5063659;28;19981;-70
2023/01/14 01:28:25;;;;;;;;;;;4.80;99.90;;;;;;5063420;28;19927;-71
2023/01/14 01:30:51;;;;;;;;;;;4.80;99.90;;;;;;5047861;28;20009;-71
2023/01/14 01:33:18;;;;;;;;;;;4.80;99.90;;;;;;5044019;28;20167;-71
2023/01/14 01:35:45;;;;;;;;;;;4.80;99.90;;;;;;5056305;28;19952;-70
2023/01/14 01:38:11;;;;;;;;;;;4.80;99.90;;;;;;5043433;28;19960;-71
2023/01/14 01:40:39;;;;;;;;;;;4.80;99.90;;;;;;5043946;28;19953;-71
2023/01/14 01:43:10;;;;;;;;;;;4.80;99.90;;;;;;5058907;28;19928;-71
2023/01/14 01:45:40;;;;;;;;;;;4.90;99.90;;;;;;5063729;28;19928;-70
2023/01/14 01:48:08;;;;;;;;;;;4.80;99.90;;;;;;5054902;28;19925;-70
2023/01/14 01:50:35;;;;;;;;;;;4.80;99.90;;;;;;5050343;28;19984;-70
2023/01/14 01:53:03;;;;;;;;;;;4.90;99.90;;;;;;5054494;28;19952;-70
2023/01/14 01:55:31;;;;;;;;;;;4.90;99.90;;;;;;5077025;28;19983;-70
2023/01/14 01:57:59;;;;;;;;;;;4.90;99.90;;;;;;5068260;28;20271;-70
2023/01/14 02:00:27;;;;;;;;;;;5.00;99.90;;;;;;5057037;28;19929;-70
2023/01/14 02:02:55;;;;;;;;;;;5.00;99.90;;;;;;5066042;28;19921;-70
2023/01/14 02:05:22;;;;;;;;;;;5.00;99.90;;;;;;5069761;28;19979;-71
2023/01/14 02:07:48;;;;;;;;;;;5.00;99.90;;;;;;5067490;28;19992;-70
2023/01/14 02:10:15;;;;;;;;;;;5.00;99.90;;;;;;5069976;28;19956;-69
2023/01/14 02:12:54;;;;;;;;;;;5.00;99.90;;;;;;5069924;28;19921;-70
2023/01/14 02:15:30;;;;;;;;;;;4.90;99.90;;;;;;5070027;28;19984;-70
2023/01/14 02:18:02;;;;;;;;;;;4.90;99.90;;;;;;5058016;28;19982;-70
2023/01/14 02:20:33;;;;;;;;;;;4.90;99.90;;;;;;5050259;28;19921;-70
2023/01/14 02:23:10;;;;;;;;;;;5.00;99.90;;;;;;5053714;28;19925;-70
2023/01/14 02:25:50;;;;;;;;;;;5.00;99.90;;;;;;5049595;28;20252;-67
2023/01/14 02:28:22;;;;;;;;;;;5.00;99.90;;;;;;5049597;28;19980;-70
2023/01/14 02:30:55;;;;;;;;;;;5.00;99.90;;;;;;5061000;28;20262;-70
2023/01/14 02:33:30;;;;;;;;;;;5.00;99.90;;;;;;5070057;28;19980;-70
2023/01/14 02:36:01;;;;;;;;;;;4.90;99.90;;;;;;5055110;28;20119;-70
2023/01/14 02:38:31;;;;;;;;;;;5.00;99.90;;;;;;5049021;28;19921;-69
2023/01/14 02:41:01;;;;;;;;;;;5.00;99.90;;;;;;5050112;28;19921;-70
2023/01/14 02:46:20;;;;;;;;;;;4.90;99.90;;;;;;5054440;28;19955;-70
2023/01/14 02:48:49;;;;;;;;;;;4.90;99.90;;;;;;5067779;28;19920;-72
2023/01/14 02:51:16;;;;;;;;;;;4.90;99.90;;;;;;5069818;28;19920;-70
2023/01/14 02:53:43;;;;;;;;;;;4.90;99.90;;;;;;5055449;28;19927;-70
2023/01/14 02:56:11;;;;;;;;;;;4.90;99.90;;;;;;5069090;28;20155;-71
2023/01/14 02:58:53;;;;;;;;;;;4.90;99.90;;;;;;5059052;28;19992;-69
2023/01/14 03:01:33;;;;;;;;;;;4.90;99.90;;;;;;5052295;28;19960;-69
2023/01/14 03:04:15;;;;;;;;;;;4.90;99.90;;;;;;5063687;28;20246;-70
2023/01/14 03:06:48;;;;;;;;;;;4.90;99.90;;;;;;5065367;28;19951;-70
2023/01/14 03:09:17;;;;;;;;;;;4.90;99.90;;;;;;5082688;28;19920;-70
2023/01/14 03:11:46;;;;;;;;;;;5.00;99.90;;;;;;5065677;28;19921;-70
2023/01/14 03:14:19;;;;;;;;;;;4.90;99.90;;;;;;5066507;28;19927;-70
2023/01/14 03:16:51;;;;;;;;;;;5.00;99.90;;;;;;5065577;28;19920;-70
2023/01/14 03:19:21;;;;;;;;;;;5.00;99.90;;;;;;5051109;28;19927;-70
2023/01/14 03:21:50;;;;;;;;;;;4.90;99.90;;;;;;5052496;28;19921;-69
2023/01/14 03:24:19;;;;;;;;;;;4.90;99.90;;;;;;5059659;28;19921;-70
2023/01/14 03:26:47;;;;;;;;;;;4.90;99.90;;;;;;5045173;28;19988;-70
2023/01/14 03:29:16;;;;;;;;;;;5.00;99.90;;;;;;5065248;28;19959;-70
2023/01/14 03:31:47;;;;;;;;;;;4.90;99.90;;;;;;5065850;28;19920;-69
2023/01/14 03:34:16;;;;;;;;;;;4.90;99.90;;;;;;5053685;28;19928;-70
2023/01/14 03:36:43;;;;;;;;;;;4.90;99.90;;;;;;5061156;28;19943;-70
2023/01/14 03:39:12;;;;;;;;;;;4.90;99.90;;;;;;5065897;28;19921;-70
2023/01/14 03:44:26;;;;;;;;;;;4.90;99.90;;;;;;5065689;28;20266;-69
2023/01/14 03:46:53;;;;;;;;;;;5.00;99.90;;;;;;5050086;28;20240;-70
2023/01/14 03:49:21;;;;;;;;;;;5.00;99.90;;;;;;5053871;28;19921;-67
2023/01/14 03:51:50;;;;;;;;;;;5.00;99.90;;;;;;5053929;28;19988;-70
2023/01/14 03:54:21;;;;;;;;;;;5.00;99.90;;;;;;5065799;28;19927;-70
2023/01/14 03:56:52;;;;;;;;;;;5.00;99.90;;;;;;5064605;28;19928;-70
2023/01/14 03:59:21;;;;;;;;;;;5.10;99.90;;;;;;5060510;28;19996;-70
2023/01/14 04:01:49;;;;;;;;;;;5.00;99.90;;;;;;5060123;28;19985;-69
2023/01/14 04:04:16;;;;;;;;;;;5.00;99.90;;;;;;5047261;28;19921;-69
2023/01/14 04:06:44;;;;;;;;;;;5.00;99.90;;;;;;5044433;28;19948;-70
2023/01/14 04:09:11;;;;;;;;;;;5.00;99.90;;;;;;5049565;28;19947;-70
2023/01/14 04:11:39;;;;;;;;;;;5.00;99.90;;;;;;5065182;28;19927;-70
2023/01/14 04:16:50;;;;;;;;;;;4.90;99.90;;;;;;5065595;28;19923;-70
2023/01/14 04:19:16;;;;;;;;;;;4.90;99.90;;;;;;5064806;28;19921;-70
2023/01/14 04:21:44;;;;;;;;;;;4.90;99.90;;;;;;5048458;28;20164;-70
2023/01/14 04:24:11;;;;;;;;;;;4.80;99.90;;;;;;5044902;28;20127;-70
2023/01/14 04:26:38;;;;;;;;;;;4.80;99.90;;;;;;5046854;28;19927;-70
2023/01/14 04:29:04;;;;;;;;;;;4.80;99.90;;;;;;5064702;28;19988;-70
2023/01/14 04:31:31;;;;;;;;;;;4.80;99.90;;;;;;5065003;28;19949;-69
2023/01/14 04:33:57;;;;;;;;;;;4.80;99.90;;;;;;5050471;28;20224;-70
2023/01/14 04:36:24;;;;;;;;;;;4.70;99.90;;;;;;5052800;28;19921;-70
2023/01/14 04:38:52;;;;;;;;;;;4.60;99.90;;;;;;5064626;28;19997;-69
2023/01/14 04:43:59;;;;;;;;;;;4.60;99.90;;;;;;5020805;28;20026;-70
2023/01/14 04:46:26;;;;;;;;;;;4.60;99.90;;;;;;5043821;28;19929;-69
2023/01/14 04:48:53;;;;;;;;;;;4.60;99.90;;;;;;5044627;28;19921;-70
2023/01/14 04:51:19;;;;;;;;;;;4.50;99.90;;;;;;5052826;28;20227;-70
2023/01/14 04:53:46;;;;;;;;;;;4.50;99.90;;;;;;5055170;28;20232;-70
2023/01/14 04:56:14;;;;;;;;;;;4.50;99.90;;;;;;5056404;28;19980;-70
2023/01/14 04:58:40;;;;;;;;;;;4.50;99.90;;;;;;5058386;28;19921;-70
2023/01/14 05:01:07;;;;;;;;;;;4.50;99.90;;;;;;5056768;28;19988;-70
2023/01/14 05:03:34;;;;;;;;;;;4.40;99.90;;;;;;5063718;28;19949;-70
2023/01/14 05:06:00;;;;;;;;;;;4.40;99.90;;;;;;5063945;28;20234;-70
2023/01/14 05:08:27;;;;;;;;;;;4.40;99.90;;;;;;5062584;28;19987;-70
2023/01/14 05:10:54;;;;;;;;;;;4.40;99.90;;;;;;5064297;28;19928;-70
2023/01/14 05:13:21;;;;;;;;;;;4.40;99.90;;;;;;5061472;28;19948;-70
2023/01/14 05:15:48;;;;;;;;;;;4.40;99.90;;;;;;5043842;28;19996;-70
2023/01/14 05:18:15;;;;;;;;;;;4.40;99.90;;;;;;5043784;28;19921;-70
2023/01/14 05:20:42;;;;;;;;;;;4.30;99.90;;;;;;5052203;28;20027;-69
2023/01/14 05:23:11;;;;;;;;;;;4.30;99.90;;;;;;5043792;28;20220;-70
2023/01/14 05:25:38;;;;;;;;;;;4.30;99.90;;;;;;5050566;28;19955;-68
2023/01/14 05:28:05;;;;;;;;;;;4.30;99.90;;;;;;5063819;28;19984;-69
2023/01/14 05:30:34;;;;;;;;;;;4.40;99.90;;;;;;5064289;28;19921;-70
2023/01/14 05:33:00;;;;;;;;;;;4.30;99.90;;;;;;5062634;28;19959;-68
2023/01/14 05:35:27;;;;;;;;;;;4.30;99.90;;;;;;5064673;28;20193;-70
2023/01/14 05:37:54;;;;;;;;;;;4.20;99.90;;;;;;5062799;28;19984;-70
2023/01/14 05:40:20;;;;;;;;;;;4.20;99.90;;;;;;5063967;28;20173;-70
2023/01/14 05:45:49;;;;;;;;;;;4.20;99.90;;;;;;5063509;28;19955;-69
2023/01/14 05:48:16;;;;;;;;;;;4.30;99.90;;;;;;5063328;28;20136;-70
2023/01/14 05:50:42;;;;;;;;;;;4.30;99.90;;;;;;5048322;28;19921;-71
2023/01/14 05:53:09;;;;;;;;;;;4.20;99.90;;;;;;5049072;28;19921;-71
2023/01/14 05:55:36;;;;;;;;;;;4.30;99.90;;;;;;5056281;28;19928;-70
2023/01/14 05:58:04;;;;;;;;;;;4.30;99.90;;;;;;5053511;28;20142;-71
2023/01/14 06:08:46;;;;;;;;;;;4.20;99.90;;;;;;5044964;28;19948;-70
2023/01/14 06:11:12;;;;;;;;;;;4.20;99.90;;;;;;5043337;28;19922;-70
2023/01/14 06:13:39;;;;;;;;;;;4.10;99.90;;;;;;5053188;28;20378;-70
2023/01/14 06:16:07;;;;;;;;;;;4.10;99.90;;;;;;5062430;28;19988;-69
2023/01/14 06:18:41;;;;;;;;;;;4.00;99.90;;;;;;5063199;28;19921;-70
2023/01/14 06:21:09;;;;;;;;;;;4.00;99.90;;;;;;5054320;28;19928;-69
2023/01/14 06:23:35;;;;;;;;;;;4.00;99.90;;;;;;5043312;28;20000;-70
2023/01/14 06:26:02;;;;;;;;;;;3.90;99.90;;;;;;5057287;28;20168;-69
2023/01/14 06:28:29;;;;;;;;;;;3.90;99.90;;;;;;5062972;28;19948;-70
2023/01/14 06:30:56;;;;;;;;;;;3.80;99.90;;;;;;5057791;28;19929;-70
2023/01/14 06:33:22;;;;;;;;;;;3.90;99.90;;;;;;5063037;28;19988;-70
2023/01/14 06:35:50;;;;;;;;;;;3.80;99.90;;;;;;5062686;28;19959;-70
2023/01/14 06:38:17;;;;;;;;;;;3.80;99.90;;;;;;5057951;28;19920;-70
2023/01/14 06:40:44;;;;;;;;;;;3.80;99.90;;;;;;5062908;28;19987;-70
2023/01/14 06:43:11;;;;;;;;;;;3.70;99.90;;;;;;5052375;28;19921;-70
2023/01/14 06:45:38;;;;;;;;;;;3.70;99.90;;;;;;5044308;28;19921;-68
2023/01/14 06:48:04;;;;;;;;;;;3.60;99.90;;;;;;5048186;28;19981;-68
2023/01/14 06:50:31;;;;;;;;;;;3.60;99.90;;;;;;5065931;28;19920;-70
2023/01/14 06:53:02;;;;;;;;;;;3.60;99.90;;;;;;5050624;28;19959;-70
2023/01/14 06:55:29;;;;;;;;;;;3.60;99.90;;;;;;5051696;28;20212;-69
2023/01/14 06:57:55;;;;;;;;;;;3.60;99.90;;;;;;5055056;28;19955;-69
2023/01/14 07:00:22;;;;;;;;;;;3.50;99.90;;;;;;5065746;28;19952;-70
2023/01/14 07:02:49;;;;;;;;;;;3.50;99.90;;;;;;5063021;28;19921;-68
2023/01/14 07:05:16;;;;;;;;;;;3.50;99.90;;;;;;5066422;28;19921;-69
2023/01/14 07:07:44;;;;;;;;;;;3.50;99.90;;;;;;5065846;28;19983;-70
2023/01/14 07:10:12;;;;;;;;;;;3.50;99.90;;;;;;5066602;28;19927;-72
2023/01/14 07:12:39;;;;;;;;;;;3.50;99.90;;;;;;5051737;28;19927;-70
2023/01/14 07:15:06;;;;;;;;;;;3.50;99.90;;;;;;5046467;28;19959;-70
2023/01/14 07:17:33;;;;;;;;;;;3.50;99.90;;;;;;5051576;28;19948;-70
2023/01/14 07:19:59;;;;;;;;;;;3.50;99.90;;;;;;5066104;28;19927;-69
2023/01/14 07:22:26;;;;;;;;;;;3.40;99.90;;;;;;5065948;28;19921;-70
2023/01/14 07:24:53;;;;;;;;;;;3.30;99.90;;;;;;5055691;28;20200;-69
2023/01/14 07:27:21;;;;;;;;;;;3.40;99.90;;;;;;5065228;28;19928;-69
2023/01/14 07:29:47;;;;;;;;;;;3.30;99.90;;;;;;5056010;28;19936;-69
2023/01/14 07:32:14;;;;;;;;;;;3.30;99.90;;;;;;5046097;28;19960;-69
2023/01/14 07:34:41;;;;;;;;;;;3.30;99.90;;;;;;5047535;28;20153;-69
2023/01/14 07:37:07;;;;;;;;;;;3.40;99.90;;;;;;5065061;28;20235;-69
2023/01/14 07:39:34;;;;;;;;;;;3.40;99.90;;;;;;5065828;28;20268;-68
2023/01/14 07:42:00;;;;;;;;;;;3.40;99.90;;;;;;5065975;28;19987;-70
2023/01/14 07:44:28;;;;;;;;;;;3.30;99.90;;;;;;5066062;28;19956;-70
2023/01/14 07:46:55;;;;;;;;;;;3.20;99.90;;;;;;5059053;28;19992;-70
2023/01/14 07:49:22;;;;;;;;;;;3.20;99.90;;;;;;5045816;28;19988;-69
2023/01/14 07:51:49;;;;;;;;;;;3.20;99.90;;;;;;5048024;28;19948;-70
2023/01/14 07:54:16;;;;;;;;;;;3.20;99.90;;;;;;5062567;28;19956;-70
2023/01/14 07:56:43;;;;;;;;;;;3.30;99.90;;;;;;5064124;28;19921;-69
2023/01/14 07:59:09;;;;;;;;;;;3.20;99.90;;;;;;5065064;28;19921;-70
2023/01/14 08:01:37;;;;;;;;;;;3.20;99.90;;;;;;5060590;28;19949;-70
2023/01/14 08:04:04;;;;;;;;;;;3.30;99.90;;;;;;5045114;28;19988;-70
2023/01/14 08:06:31;;;;;;;;;;;3.30;99.90;;;;;;5061887;28;19955;-70
2023/01/14 08:09:00;;;;;;;;;;;3.30;99.90;;;;;;5050507;28;19921;-69
2023/01/14 08:11:26;;;;;;;;;;;3.30;99.90;;;;;;5054704;28;19921;-69
2023/01/14 08:13:53;;;;;;;;;;;3.30;99.90;;;;;;5065292;28;20255;-69
2023/01/14 08:16:21;;;;;;;;;;;3.30;99.90;;;;;;5063597;28;20220;-70
2023/01/14 08:18:49;;;;;;;;;;;3.30;99.90;;;;;;5044701;28;19927;-68
2023/01/14 08:21:16;;;;;;;;;;;3.40;99.90;;;;;;5044997;28;19959;-69
2023/01/14 08:23:43;;;;;;;;;;;3.40;99.90;;;;;;5044719;28;20117;-69
2023/01/14 08:26:10;;;;;;;;;;;3.40;99.90;;;;;;5044260;28;20228;-70
2023/01/14 08:28:37;;;;;;;;;;;3.40;99.90;;;;;;5044432;28;20235;-66
2023/01/14 08:31:05;;;;;;;;;;;3.50;99.90;;;;;;5044835;28;19959;-68
2023/01/14 08:33:32;;;;;;;;;;;3.60;99.90;;;;;;5044048;28;20163;-66
2023/01/14 08:36:05;;;;;;;;;;;3.60;99.90;;;;;;5060997;28;19920;-67
2023/01/14 08:38:32;;;;;;;;;;;3.60;99.90;;;;;;5064525;28;20192;-68
2023/01/14 08:40:59;;;;;;;;;;;3.70;99.90;;;;;;5053237;28;19984;-69
2023/01/14 08:43:25;;;;;;;;;;;3.80;99.90;;;;;;5055974;28;20006;-69
2023/01/14 08:45:52;;;;;;;;;;;3.90;99.90;;;;;;5062262;28;19921;-70
2023/01/14 08:48:21;;;;;;;;;;;3.90;99.90;;;;;;5055079;28;19959;-69
2023/01/14 08:50:48;;;;;;;;;;;3.90;99.90;;;;;;5061444;28;19933;-69
2023/01/14 08:53:16;;;;;;;;;;;4.00;99.90;;;;;;5051837;28;19921;-69
2023/01/14 08:55:44;;;;;;;;;;;4.00;99.90;;;;;;5043934;28;20371;-69
2023/01/14 08:58:10;;;;;;;;;;;4.00;99.90;;;;;;5049634;28;19944;-69
2023/01/14 09:00:37;;;;;;;;;;;4.00;99.90;;;;;;5064067;28;19944;-69
2023/01/14 09:03:04;;;;;;;;;;;4.00;99.90;;;;;;5060234;28;19940;-70
2023/01/14 09:05:32;;;;;;;;;;;4.10;99.90;;;;;;5062337;28;19956;-68
2023/01/14 09:19:00;;;;;;;;;;;4.30;99.90;;;;;;5063829;28;19971;-68
2023/01/14 09:21:27;;;;;;;;;;;4.30;99.90;;;;;;5056553;28;19956;-69
2023/01/14 09:23:53;;;;;;;;;;;4.40;99.90;;;;;;5045515;28;19987;-69
2023/01/14 09:26:21;;;;;;;;;;;4.50;99.90;;;;;;5061552;28;19967;-69
2023/01/14 09:28:50;;;;;;;;;;;4.50;99.90;;;;;;5043920;28;20236;-69
2023/01/14 09:31:16;;;;;;;;;;;4.60;99.90;;;;;;5060212;28;19920;-72
2023/01/14 09:33:43;;;;;;;;;;;4.70;99.90;;;;;;5052547;28;19957;-67
2023/01/14 09:36:10;;;;;;;;;;;4.70;99.90;;;;;;5044130;28;19925;-69
2023/01/14 09:38:36;;;;;;;;;;;4.80;99.90;;;;;;5068427;28;20015;-69
2023/01/14 09:41:03;;;;;;;;;;;4.80;99.90;;;;;;5063678;28;19984;-69
2023/01/14 09:43:31;;;;;;;;;;;4.90;99.90;;;;;;5063661;28;19984;-69
2023/01/14 09:46:00;;;;;;;;;;;4.90;99.90;;;;;;5063033;28;19960;-69
2023/01/14 09:48:28;;;;;;;;;;;5.00;99.90;;;;;;5062902;28;19983;-70
2023/01/14 09:51:01;;;;;;;;;;;5.10;99.90;;;;;;5061802;28;19932;-69
2023/01/14 09:53:38;;;;;;;;;;;5.20;99.90;;;;;;5046900;28;19945;-70
2023/01/14 09:56:11;;;;;;;;;;;5.20;99.90;;;;;;5043808;28;19921;-70
2023/01/14 09:58:40;;;;;;;;;;;5.20;99.90;;;;;;5057722;28;20219;-68
2023/01/14 10:01:11;;;;;;;;;;;5.30;99.90;;;;;;5044083;28;19927;-69
2023/01/14 10:03:40;;;;;;;;;;;5.30;99.90;;;;;;5062375;28;19920;-70
2023/01/14 10:06:11;;;;;;;;;;;5.40;99.90;;;;;;5043068;28;19928;-70
2023/01/14 10:08:39;;;;;;;;;;;5.50;99.90;;;;;;5043591;28;19992;-69
2023/01/14 10:11:07;;;;;;;;;;;5.60;99.90;;;;;;5043603;28;19960;-70
2023/01/14 10:13:36;;;;;;;;;;;5.60;99.90;;;;;;5043642;28;19927;-69
2023/01/14 10:16:08;;;;;;;;;;;5.70;99.90;;;;;;5042832;28;19952;-70
2023/01/14 10:18:37;;;;;;;;;;;5.70;99.90;;;;;;5043039;28;19981;-70
2023/01/14 10:21:06;;;;;;;;;;;5.60;99.90;;;;;;5053082;28;20020;-70
2023/01/14 10:23:36;;;;;;;;;;;5.70;99.90;;;;;;5047281;28;19964;-70
2023/01/14 10:26:10;;;;;;;;;;;5.70;99.90;;;;;;5047761;28;20227;-69
2023/01/14 10:28:37;;;;;;;;;;;5.70;99.90;;;;;;5067117;28;20173;-71
2023/01/14 10:31:06;;;;;;;;;;;5.70;99.90;;;;;;5066694;28;19920;-71
2023/01/14 10:33:33;;;;;;;;;;;5.70;99.90;;;;;;5061492;28;19927;-69
2023/01/14 10:36:02;;;;;;;;;;;5.80;99.90;;;;;;5063272;28;19935;-69
2023/01/14 10:38:29;;;;;;;;;;;5.80;99.90;;;;;;5059773;28;19967;-70
2023/01/14 10:40:58;;;;;;;;;;;5.90;99.90;;;;;;5057145;28;19988;-69
2023/01/14 10:43:35;;;;;;;;;;;5.80;99.90;;;;;;5064284;28;20224;-68
2023/01/14 10:46:02;;;;;;;;;;;6.00;99.90;;;;;;5054170;28;20001;-71
2023/01/14 10:48:35;;;;;;;;;;;6.00;99.90;;;;;;5066160;28;19928;-69
2023/01/14 10:51:16;;;;;;;;;;;6.10;99.90;;;;;;5059047;28;19988;-70
2023/01/14 10:53:43;;;;;;;;;;;6.10;99.90;;;;;;5058213;28;19952;-70
2023/01/14 10:56:10;;;;;;;;;;;6.10;99.90;;;;;;5052571;28;19984;-70
2023/01/14 10:58:38;;;;;;;;;;;6.10;99.90;;;;;;5059055;28;19963;-70
2023/01/14 11:01:05;;;;;;;;;;;6.10;99.90;;;;;;5066054;28;19921;-70
2023/01/14 11:03:35;;;;;;;;;;;6.10;99.90;;;;;;5064029;28;19982;-70
2023/01/14 11:06:03;;;;;;;;;;;6.00;99.90;;;;;;5049652;28;20008;-70
2023/01/14 11:08:33;;;;;;;;;;;6.10;99.90;;;;;;5057348;28;19956;-71
2023/01/14 11:11:01;;;;;;;;;;;6.10;99.90;;;;;;5058190;28;19928;-70
2023/01/14 11:13:30;;;;;;;;;;;6.10;99.90;;;;;;5054073;28;20387;-70
2023/01/14 11:15:56;;;;;;;;;;;6.10;99.90;;;;;;5060187;28;19944;-70
2023/01/14 11:18:27;;;;;;;;;;;6.10;99.90;;;;;;5052046;28;19992;-70
2023/01/14 11:21:09;;;;;;;;;;;6.20;99.90;;;;;;5065848;28;19991;-70
2023/01/14 11:23:38;;;;;;;;;;;6.20;99.90;;;;;;5060661;28;19920;-70
2023/01/14 11:26:07;;;;;;;;;;;6.20;99.90;;;;;;5060144;28;19920;-68
2023/01/14 11:28:35;;;;;;;;;;;6.20;99.90;;;;;;5066149;28;19943;-70
2023/01/14 11:31:02;;;;;;;;;;;6.20;99.90;;;;;;5065039;28;19948;-70
2023/01/14 11:33:29;;;;;;;;;;;6.20;99.90;;;;;;5046114;28;19988;-70
2023/01/14 11:35:58;;;;;;;;;;;6.20;99.90;;;;;;5045545;28;19925;-70
2023/01/14 11:38:26;;;;;;;;;;;6.20;99.90;;;;;;5064410;28;20258;-70
2023/01/14 11:43:52;;;;;;;;;;;6.30;99.90;;;;;;5059123;28;19927;-70
2023/01/14 11:46:19;;;;;;;;;;;6.40;99.90;;;;;;5045039;28;19921;-71
2023/01/14 11:48:58;;;;;;;;;;;6.40;99.90;;;;;;5052472;28;20183;-70
2023/01/14 11:51:26;;;;;;;;;;;6.40;99.90;;;;;;5061748;28;19920;-70
2023/01/14 11:53:53;;;;;;;;;;;6.50;99.90;;;;;;5050831;28;20124;-70
2023/01/14 11:56:24;;;;;;;;;;;6.50;99.90;;;;;;5057779;28;19929;-71
2023/01/14 11:58:51;;;;;;;;;;;6.50;99.90;;;;;;5045634;28;19975;-70
2023/01/14 12:01:22;;;;;;;;;;;6.50;99.90;;;;;;5047489;28;19971;-69
2023/01/14 12:03:53;;;;;;;;;;;6.60;99.90;;;;;;5044781;28;19927;-70
2023/01/14 12:06:23;;;;;;;;;;;6.60;99.90;;;;;;5044069;28;19929;-69
2023/01/14 12:08:53;;;;;;;;;;;6.60;99.90;;;;;;5045561;28;19980;-69
2023/01/14 12:11:24;;;;;;;;;;;6.70;99.90;;;;;;5045107;28;19983;-69
2023/01/14 12:16:50;;;;;;;;;;;6.70;99.90;;;;;;5061648;28;19999;-68
2023/01/14 12:19:19;;;;;;;;;;;6.70;99.90;;;;;;5064000;28;20208;-70
2023/01/14 12:21:48;;;;;;;;;;;6.80;99.90;;;;;;5061209;28;19976;-69
2023/01/14 12:24:16;;;;;;;;;;;6.80;99.90;;;;;;5046064;28;19991;-70
2023/01/14 12:26:45;;;;;;;;;;;6.90;99.90;;;;;;5044219;28;19921;-70
2023/01/14 12:29:15;;;;;;;;;;;6.90;99.90;;;;;;5059611;28;19980;-68
2023/01/14 12:31:44;;;;;;;;;;;7.00;99.90;;;;;;5054211;28;19984;-70
2023/01/14 12:34:16;;;;;;;;;;;7.00;99.90;;;;;;5052583;28;20122;-70
2023/01/14 12:36:48;;;;;;;;;;;7.00;99.90;;;;;;5052234;28;19921;-70
2023/01/14 12:47:54;;;;;;;;;;;7.20;99.90;;;;;;5061766;28;19955;-70
2023/01/14 12:50:40;;;;;;;;;;;7.20;99.90;;;;;;5059733;28;19956;-70
2023/01/14 12:53:06;;;;;;;;;;;7.20;99.90;;;;;;5052390;28;20365;-69
2023/01/14 12:55:34;;;;;;;;;;;7.30;99.90;;;;;;5063886;28;19963;-70
2023/01/14 12:58:04;;;;;;;;;;;7.30;99.90;;;;;;5063758;28;19993;-70
2023/01/14 13:00:32;;;;;;;;;;;7.30;99.90;;;;;;5048921;28;19984;-71
2023/01/14 13:03:01;;;;;;;;;;;7.30;99.90;;;;;;5064229;28;20393;-70
2023/01/14 13:05:28;;;;;;;;;;;7.30;99.90;;;;;;5061391;28;19921;-70
2023/01/14 13:07:57;;;;;;;;;;;7.30;99.90;;;;;;5043952;28;20177;-68
2023/01/14 13:10:31;;;;;;;;;;;7.30;99.90;;;;;;5044428;28;19980;-69
2023/01/14 13:12:58;;;;;;;;;;;7.40;99.90;;;;;;5044230;28;19928;-70
2023/01/14 13:15:27;;;;;;;;;;;7.30;99.90;;;;;;5064403;28;20000;-69
2023/01/14 13:17:55;;;;;;;;;;;7.40;99.90;;;;;;5060947;28;19937;-69
2023/01/14 13:20:48;;;;;;;;;;;7.40;99.90;;;;;;5051252;28;19930;-69
2023/01/14 13:23:35;;;;;;;;;;;7.40;99.90;;;;;;5014315;28;19989;-70
2023/01/14 13:26:02;;;;;;;;;;;7.40;99.90;;;;;;5043301;28;20004;-69
2023/01/14 13:28:33;;;;;;;;;;;7.40;99.90;;;;;;5046457;28;20163;-70
2023/01/14 13:31:27;;;;;;;;;;;7.40;99.90;;;;;;5064188;28;19928;-68
2023/01/14 13:34:26;;;;;;;;;;;7.40;99.90;;;;;;5037390;28;19989;-69
2023/01/14 13:37:09;;;;;;;;;;;7.40;99.90;;;;;;4973829;28;19973;-70
2023/01/14 13:39:36;;;;;;;;;;;7.50;99.90;;;;;;5045770;28;19920;-69
2023/01/14 13:42:14;;;;;;;;;;;7.50;99.90;;;;;;5061233;28;19921;-71
2023/01/14 13:44:48;;;;;;;;;;;7.40;99.90;;;;;;5064843;28;19928;-71
2023/01/14 13:47:18;;;;;;;;;;;7.50;99.90;;;;;;5054682;28;19972;-71
2023/01/14 13:49:52;;;;;;;;;;;7.40;99.90;;;;;;5043897;28;20231;-70
2023/01/14 13:52:23;;;;;;;;;;;7.40;99.90;;;;;;5051756;28;20145;-71
2023/01/14 13:54:55;;;;;;;;;;;7.40;99.90;;;;;;5063345;28;19921;-71
2023/01/14 13:57:24;;;;;;;;;;;7.40;99.90;;;;;;5058227;28;19988;-70
2023/01/14 13:59:54;;;;;;;;;;;7.40;99.90;;;;;;5061928;28;19921;-70
2023/01/14 14:02:39;;;;;;;;;;;7.40;99.90;;;;;;5059901;28;19968;-70
2023/01/14 14:05:14;;;;;;;;;;;7.40;99.90;;;;;;5056488;28;20251;-69
2023/01/14 14:07:59;;;;;;;;;;;7.40;99.90;;;;;;5062976;28;19928;-69
2023/01/14 14:10:29;;;;;;;;;;;7.40;99.90;;;;;;5063543;28;19928;-70
2023/01/14 14:15:53;;;;;;;;;;;7.40;99.90;;;;;;4996140;28;19917;-70
2023/01/14 14:18:26;;;;;;;;;;;7.40;99.90;;;;;;5049101;28;19952;-70
2023/01/14 14:20:53;;;;;;;;;;;7.40;99.90;;;;;;5063737;28;20112;-69
2023/01/14 14:23:25;;;;;;;;;;;7.40;99.90;;;;;;5047360;28;19985;-70
2023/01/14 14:25:51;;;;;;;;;;;7.40;99.90;;;;;;5052456;28;19921;-70
2023/01/14 14:28:20;;;;;;;;;;;7.40;99.90;;;;;;5062869;28;20107;-70
2023/01/14 14:30:49;;;;;;;;;;;7.40;99.90;;;;;;5063626;28;19920;-70
2023/01/14 14:33:33;;;;;;;;;;;7.40;99.90;;;;;;5063698;28;19927;-70
2023/01/14 14:36:01;;;;;;;;;;;7.50;99.90;;;;;;5052056;28;19956;-75
2023/01/14 14:38:29;;;;;;;;;;;7.40;99.90;;;;;;5063091;28;19920;-70
2023/01/14 14:40:56;;;;;;;;;;;7.40;99.90;;;;;;5050249;28;19928;-70
2023/01/14 14:43:28;;;;;;;;;;;7.40;99.90;;;;;;5042409;28;19921;-70
2023/01/14 14:46:01;;;;;;;;;;;7.50;99.90;;;;;;5048072;28;20008;-70
2023/01/14 14:48:29;;;;;;;;;;;7.50;99.90;;;;;;5063247;28;19920;-70
2023/01/14 14:50:57;;;;;;;;;;;7.50;99.90;;;;;;5059421;28;20232;-69
2023/01/14 14:53:33;;;;;;;;;;;7.40;99.90;;;;;;5049125;28;19927;-69
2023/01/14 14:56:03;;;;;;;;;;;7.40;99.90;;;;;;5062534;28;19992;-72
2023/01/14 14:58:30;;;;;;;;;;;7.50;99.90;;;;;;5050959;28;19949;-70
2023/01/14 15:00:58;;;;;;;;;;;7.40;99.90;;;;;;5043309;28;20250;-70
2023/01/14 15:03:25;;;;;;;;;;;7.40;99.90;;;;;;5050514;28;19963;-69
2023/01/14 15:05:52;;;;;;;;;;;7.40;99.90;;;;;;5063380;28;19980;-69
2023/01/14 15:08:23;;;;;;;;;;;7.40;99.90;;;;;;5051742;28;19960;-70
2023/01/14 15:10:50;;;;;;;;;;;7.30;99.90;;;;;;5062088;28;20261;-70
2023/01/14 15:13:20;;;;;;;;;;;7.30;99.90;;;;;;5060436;28;19980;-70
2023/01/14 15:16:03;;;;;;;;;;;7.30;99.90;;;;;;5054776;28;20185;-70
2023/01/14 15:18:32;;;;;;;;;;;7.30;99.90;;;;;;5066361;28;19992;-70
2023/01/14 15:20:59;;;;;;;;;;;7.30;99.90;;;;;;5063614;28;19920;-70
2023/01/14 15:23:25;;;;;;;;;;;7.30;99.90;;;;;;5049278;28;19979;-71
2023/01/14 15:25:53;;;;;;;;;;;7.30;99.90;;;;;;5065526;28;20231;-70
2023/01/14 15:28:21;;;;;;;;;;;7.30;99.90;;;;;;5050834;28;20212;-71
2023/01/14 15:30:55;;;;;;;;;;;7.30;99.90;;;;;;5045805;28;19976;-70
2023/01/14 15:33:28;;;;;;;;;;;7.30;99.90;;;;;;5053660;28;19927;-70